Lynnville, Iowa
Current Conditions -  °F | °C
As of 4:35 AM on Thursday 27 Nov 2014 (Local Time) from KGGI Reporting Station
Overcast Overcast  
Wind Chill: -2°   Ceiling: 2400
Heat Index: 15°   Visibility: 10mi
Dew Point: 11°   Wind: 18mph
Humidity: 85%   Direction: 300°WNW
Pressure: 30.42"   Gusts: 23mph
Location:  41.58°N, 92.78°W
Report Text: KGGI 271035Z AUTO 30016G20KT 10SM OVC024 M10/M12 A3042 RMK AO2 T10971118
Loading
Personal Weather Stations






























Interactive Weather Map New forecast layout! Learn more

10-Day Weather Forecast

Advertisements
Track Severe Weather on mobile